Terminal Aerodrome Forecast
Issued by NWS Green Bay, WI

Home | Current Version | Previous Version | Text Only | Print | Product List | Glossary Off
Versions: 1 2 3 4 5 6 7 8 9 10 11 12 13 14 15 16 17 18 19 20 21 22 23 24 25 26 27 28 29 30 31 32 33 34 35 36 37 38 39

000
FTUS43 KGRB 310500
TAFGRB
TAF
KGRB 310520Z 3106/0106 04008KT P6SM SCT035 BKN060
     FM311500 32005KT P6SM SCT070 BKN110
     FM312000 29005KT P6SM VCSH BKN040
     FM010000 03006KT P6SM SCT250=

USA.gov is the U.S. government's official web portal to all federal, state and local government web resources and services.